RYR4FN EGGW-EPGD
Flight info
| Callsign | RYR4FN |
|---|---|
| Flight time | 1h 20m |
| Altitude | 37000 |
| Route | MATCH Q295 SOMVA DCT MAVAS DCT MALYK DCT LUWIL DCT BINKA DCT LUXAL L730 KOSEX |
| Aircraft | B738/M-SDE2E3FGHIRWXY/LB1 |
Departure
| Time | 2026-05-07 13:36 |
|---|---|
| Airport | London Luton Airport (EGGW) |
Arrival
| Time | 2026-05-07 14:57 |
|---|---|
| Airport | Gdańsk Lech Wałęsa Airport (EPGD) |
| Time | Latitude | Longitude | Altitude | Speed | Heading |
|---|---|---|---|---|---|
| 2026-05-07 13:10 | 51.88104 | -0.37278 | 520 ft | 0 kts | 341° |
| 2026-05-07 13:20 | 51.88104 | -0.37277 | 520 ft | 0 kts | 341° |
| 2026-05-07 13:24 | 51.88089 | -0.37270 | 520 ft | 4 kts | 341° |
| 2026-05-07 13:24 | 51.88063 | -0.37256 | 520 ft | 4 kts | 341° |
| 2026-05-07 13:24 | 51.88040 | -0.37244 | 520 ft | 4 kts | 313° |
| 2026-05-07 13:25 | 51.88039 | -0.37218 | 520 ft | 4 kts | 250° |
| 2026-05-07 13:25 | 51.88046 | -0.37186 | 520 ft | 4 kts | 238° |
| 2026-05-07 13:25 | 51.88063 | -0.37160 | 520 ft | 4 kts | 188° |
| 2026-05-07 13:25 | 51.88089 | -0.37166 | 520 ft | 4 kts | 156° |
| 2026-05-07 13:26 | 51.88107 | -0.37179 | 520 ft | 0 kts | 161° |
| 2026-05-07 13:30 | 51.88104 | -0.37177 | 520 ft | 2 kts | 159° |
| 2026-05-07 13:30 | 51.88060 | -0.37151 | 520 ft | 11 kts | 160° |
| 2026-05-07 13:30 | 51.87962 | -0.37096 | 520 ft | 19 kts | 161° |
| 2026-05-07 13:31 | 51.87822 | -0.37021 | 520 ft | 22 kts | 162° |
| 2026-05-07 13:31 | 51.87679 | -0.36949 | 520 ft | 21 kts | 172° |
| 2026-05-07 13:31 | 51.87610 | -0.37098 | 520 ft | 17 kts | 255° |
| 2026-05-07 13:31 | 51.87579 | -0.37283 | 521 ft | 17 kts | 264° |
| 2026-05-07 13:32 | 51.87564 | -0.37437 | 521 ft | 14 kts | 211° |
| 2026-05-07 13:32 | 51.87503 | -0.37546 | 521 ft | 13 kts | 246° |
| 2026-05-07 13:32 | 51.87476 | -0.37684 | 521 ft | 13 kts | 255° |
| 2026-05-07 13:32 | 51.87453 | -0.37814 | 522 ft | 12 kts | 254° |
| 2026-05-07 13:33 | 51.87432 | -0.37939 | 522 ft | 11 kts | 254° |
| 2026-05-07 13:33 | 51.87391 | -0.38043 | 522 ft | 11 kts | 217° |
| 2026-05-07 13:33 | 51.87354 | -0.38077 | 522 ft | 0 kts | 207° |
| 2026-05-07 13:34 | 51.87301 | -0.38114 | 522 ft | 8 kts | 199° |
| 2026-05-07 13:34 | 51.87254 | -0.38074 | 523 ft | 9 kts | 97° |
| 2026-05-07 13:35 | 51.87263 | -0.38002 | 522 ft | 0 kts | 74° |
| 2026-05-07 13:35 | 51.87263 | -0.37999 | 522 ft | 1 kts | 74° |
| 2026-05-07 13:35 | 51.87289 | -0.37854 | 523 ft | 47 kts | 74° |
| 2026-05-07 13:35 | 51.87450 | -0.36920 | 521 ft | 123 kts | 74° |
| 2026-05-07 13:36 | 51.87735 | -0.35295 | 721 ft | 166 kts | 74° |
| 2026-05-07 13:36 | 51.88069 | -0.33500 | 1631 ft | 171 kts | 76° |
| 2026-05-07 13:36 | 51.88410 | -0.31592 | 2449 ft | 180 kts | 75° |
| 2026-05-07 13:36 | 51.88795 | -0.29685 | 3295 ft | 185 kts | 75° |
| 2026-05-07 13:37 | 51.89162 | -0.27523 | 3661 ft | 213 kts | 77° |
| 2026-05-07 13:37 | 51.89539 | -0.25064 | 3948 ft | 235 kts | 82° |
| 2026-05-07 13:37 | 51.89507 | -0.22398 | 4530 ft | 239 kts | 100° |
| 2026-05-07 13:37 | 51.89254 | -0.19709 | 5184 ft | 244 kts | 101° |
| 2026-05-07 13:38 | 51.88985 | -0.16974 | 5652 ft | 259 kts | 101° |
| 2026-05-07 13:38 | 51.88696 | -0.14020 | 6289 ft | 270 kts | 101° |
| 2026-05-07 13:38 | 51.88408 | -0.11026 | 7233 ft | 270 kts | 100° |
| 2026-05-07 13:38 | 51.88120 | -0.08001 | 8055 ft | 275 kts | 100° |
| 2026-05-07 13:39 | 51.87827 | -0.04907 | 8928 ft | 279 kts | 100° |
| 2026-05-07 13:39 | 51.87532 | -0.01776 | 9795 ft | 284 kts | 100° |
| 2026-05-07 13:39 | 51.87232 | 0.01417 | 10485 ft | 293 kts | 99° |
| 2026-05-07 13:39 | 51.86911 | 0.04817 | 10695 ft | 319 kts | 99° |
| 2026-05-07 13:40 | 51.86563 | 0.08504 | 10893 ft | 343 kts | 99° |
| 2026-05-07 13:40 | 51.86194 | 0.12410 | 11339 ft | 357 kts | 99° |
| 2026-05-07 13:40 | 51.85818 | 0.16404 | 12058 ft | 361 kts | 99° |
| 2026-05-07 13:40 | 51.85437 | 0.20434 | 12858 ft | 364 kts | 99° |
| 2026-05-07 13:41 | 51.85050 | 0.24507 | 13622 ft | 368 kts | 100° |
| 2026-05-07 13:41 | 51.84658 | 0.28624 | 14307 ft | 372 kts | 100° |
| 2026-05-07 13:41 | 51.84258 | 0.32785 | 14929 ft | 377 kts | 100° |
| 2026-05-07 13:41 | 51.83853 | 0.36995 | 15570 ft | 381 kts | 100° |
| 2026-05-07 13:42 | 51.83442 | 0.41254 | 16207 ft | 386 kts | 100° |
| 2026-05-07 13:42 | 51.83024 | 0.45568 | 16841 ft | 391 kts | 100° |
| 2026-05-07 13:42 | 51.82600 | 0.49933 | 17487 ft | 395 kts | 100° |
| 2026-05-07 13:42 | 51.82172 | 0.54316 | 18344 ft | 391 kts | 100° |
| 2026-05-07 13:43 | 51.81754 | 0.58580 | 19446 ft | 378 kts | 100° |
| 2026-05-07 13:43 | 51.81492 | 0.62719 | 20282 ft | 376 kts | 91° |
| 2026-05-07 13:43 | 51.81750 | 0.66959 | 20831 ft | 382 kts | 79° |
| 2026-05-07 13:43 | 51.82533 | 0.71088 | 21333 ft | 388 kts | 68° |
| 2026-05-07 13:44 | 51.83625 | 0.75123 | 21774 ft | 396 kts | 66° |
| 2026-05-07 13:44 | 51.84769 | 0.79271 | 21863 ft | 412 kts | 66° |
| 2026-05-07 13:44 | 51.85929 | 0.83590 | 21995 ft | 425 kts | 67° |
| 2026-05-07 13:44 | 51.87095 | 0.88034 | 22364 ft | 431 kts | 68° |
| 2026-05-07 13:45 | 51.88255 | 0.92535 | 22937 ft | 432 kts | 68° |
| 2026-05-07 13:45 | 51.89406 | 0.97037 | 23457 ft | 435 kts | 68° |
| 2026-05-07 13:45 | 51.90565 | 1.01583 | 23873 ft | 438 kts | 68° |
| 2026-05-07 13:45 | 51.91729 | 1.06157 | 24280 ft | 441 kts | 68° |
| 2026-05-07 13:46 | 51.92899 | 1.10761 | 24706 ft | 442 kts | 68° |
| 2026-05-07 13:46 | 51.94071 | 1.15373 | 25125 ft | 444 kts | 68° |
| 2026-05-07 13:46 | 51.95247 | 1.20008 | 25532 ft | 445 kts | 68° |
| 2026-05-07 13:46 | 51.96427 | 1.24666 | 25919 ft | 448 kts | 68° |
| 2026-05-07 13:47 | 51.97614 | 1.29360 | 26285 ft | 450 kts | 68° |
| 2026-05-07 13:47 | 51.98799 | 1.34057 | 26660 ft | 452 kts | 68° |
| 2026-05-07 13:47 | 51.99992 | 1.38791 | 27038 ft | 453 kts | 68° |
| 2026-05-07 13:47 | 52.01181 | 1.43526 | 27403 ft | 455 kts | 69° |
| 2026-05-07 13:48 | 52.02361 | 1.48233 | 27769 ft | 456 kts | 69° |
| 2026-05-07 13:48 | 52.03572 | 1.53073 | 28135 ft | 457 kts | 69° |
| 2026-05-07 13:48 | 52.04753 | 1.57804 | 28501 ft | 458 kts | 69° |
| 2026-05-07 13:48 | 52.05951 | 1.62613 | 28859 ft | 459 kts | 69° |
| 2026-05-07 13:49 | 52.07147 | 1.67425 | 29193 ft | 460 kts | 69° |
| 2026-05-07 13:49 | 52.08344 | 1.72250 | 29596 ft | 460 kts | 69° |
| 2026-05-07 13:49 | 52.09532 | 1.77051 | 30147 ft | 455 kts | 69° |
| 2026-05-07 13:49 | 52.10708 | 1.81811 | 30612 ft | 452 kts | 69° |
| 2026-05-07 13:50 | 52.11881 | 1.86571 | 30883 ft | 453 kts | 69° |
| 2026-05-07 13:50 | 52.13056 | 1.91352 | 31113 ft | 455 kts | 69° |
| 2026-05-07 13:50 | 52.14230 | 1.96135 | 31429 ft | 455 kts | 69° |
| 2026-05-07 13:50 | 52.15398 | 2.00907 | 31796 ft | 453 kts | 69° |
| 2026-05-07 13:51 | 52.16564 | 2.05681 | 32140 ft | 452 kts | 69° |
| 2026-05-07 13:51 | 52.17333 | 2.08833 | 32357 ft | 452 kts | 69° |
| 2026-05-07 13:51 | 52.18490 | 2.13586 | 32653 ft | 452 kts | 69° |
| 2026-05-07 13:51 | 52.19649 | 2.18360 | 32962 ft | 452 kts | 69° |
| 2026-05-07 13:52 | 52.20801 | 2.23113 | 33300 ft | 450 kts | 69° |
| 2026-05-07 13:52 | 52.21951 | 2.27867 | 33626 ft | 450 kts | 69° |
| 2026-05-07 13:52 | 52.23094 | 2.32606 | 33927 ft | 449 kts | 69° |
| 2026-05-07 13:52 | 52.24236 | 2.37352 | 34189 ft | 449 kts | 69° |
| 2026-05-07 13:53 | 52.25378 | 2.42103 | 34419 ft | 449 kts | 69° |
| 2026-05-07 13:53 | 52.26515 | 2.46850 | 34600 ft | 451 kts | 69° |
| 2026-05-07 13:53 | 52.27657 | 2.51625 | 34779 ft | 452 kts | 69° |
| 2026-05-07 13:53 | 52.28801 | 2.56413 | 35005 ft | 452 kts | 69° |
| 2026-05-07 13:54 | 52.29939 | 2.61189 | 35197 ft | 452 kts | 69° |
| 2026-05-07 13:54 | 52.31036 | 2.66012 | 35369 ft | 453 kts | 72° |
| 2026-05-07 13:54 | 52.31969 | 2.70940 | 35548 ft | 454 kts | 75° |
| 2026-05-07 13:54 | 52.32833 | 2.75906 | 35759 ft | 454 kts | 75° |
| 2026-05-07 13:55 | 52.33677 | 2.80878 | 35943 ft | 455 kts | 75° |
| 2026-05-07 13:55 | 52.34528 | 2.85865 | 36110 ft | 456 kts | 75° |
| 2026-05-07 13:55 | 52.35390 | 2.90855 | 36275 ft | 457 kts | 75° |
| 2026-05-07 13:55 | 52.36262 | 2.95853 | 36452 ft | 457 kts | 75° |
| 2026-05-07 13:56 | 52.37127 | 3.00793 | 36627 ft | 458 kts | 75° |
| 2026-05-07 13:56 | 52.38005 | 3.05805 | 36798 ft | 459 kts | 75° |
| 2026-05-07 13:56 | 52.38881 | 3.10824 | 36976 ft | 459 kts | 75° |
| 2026-05-07 13:56 | 52.39754 | 3.15846 | 37167 ft | 459 kts | 75° |
| 2026-05-07 13:57 | 52.40593 | 3.20893 | 37332 ft | 459 kts | 76° |
| 2026-05-07 13:57 | 52.41368 | 3.25968 | 37498 ft | 460 kts | 77° |
| 2026-05-07 13:57 | 52.42117 | 3.31076 | 37662 ft | 460 kts | 77° |
| 2026-05-07 13:57 | 52.42854 | 3.36177 | 37830 ft | 461 kts | 77° |
| 2026-05-07 13:58 | 52.43593 | 3.41289 | 37986 ft | 461 kts | 77° |
| 2026-05-07 13:58 | 52.44334 | 3.46393 | 38138 ft | 461 kts | 77° |
| 2026-05-07 13:58 | 52.45082 | 3.51518 | 38300 ft | 462 kts | 77° |
| 2026-05-07 13:58 | 52.45831 | 3.56641 | 38446 ft | 462 kts | 77° |
| 2026-05-07 13:59 | 52.46581 | 3.61774 | 38590 ft | 463 kts | 77° |
| 2026-05-07 13:59 | 52.47331 | 3.66911 | 38735 ft | 463 kts | 77° |
| 2026-05-07 13:59 | 52.48077 | 3.72039 | 38845 ft | 463 kts | 77° |
| 2026-05-07 13:59 | 52.48824 | 3.77185 | 38966 ft | 463 kts | 77° |
| 2026-05-07 14:00 | 52.49567 | 3.82330 | 39064 ft | 464 kts | 77° |
| 2026-05-07 14:00 | 52.51054 | 3.92672 | 39096 ft | 466 kts | 77° |
| 2026-05-07 14:01 | 52.52524 | 4.02968 | 39098 ft | 466 kts | 77° |
| 2026-05-07 14:01 | 52.53996 | 4.13343 | 39092 ft | 466 kts | 77° |
| 2026-05-07 14:02 | 52.55459 | 4.23737 | 39092 ft | 466 kts | 78° |
| 2026-05-07 14:02 | 52.56914 | 4.34135 | 39087 ft | 466 kts | 78° |
| 2026-05-07 14:03 | 52.58357 | 4.44524 | 39081 ft | 466 kts | 78° |
| 2026-05-07 14:03 | 52.59790 | 4.54912 | 39082 ft | 466 kts | 78° |
| 2026-05-07 14:04 | 52.61214 | 4.65312 | 39087 ft | 466 kts | 78° |
| 2026-05-07 14:04 | 52.62631 | 4.75734 | 39083 ft | 466 kts | 78° |
| 2026-05-07 14:05 | 52.64026 | 4.86064 | 39082 ft | 466 kts | 78° |
| 2026-05-07 14:05 | 52.65422 | 4.96474 | 39080 ft | 466 kts | 78° |
| 2026-05-07 14:06 | 52.66811 | 5.06907 | 39089 ft | 465 kts | 78° |
| 2026-05-07 14:06 | 52.68189 | 5.17334 | 39075 ft | 466 kts | 78° |
| 2026-05-07 14:07 | 52.69560 | 5.27786 | 39068 ft | 465 kts | 78° |
| 2026-05-07 14:07 | 52.70918 | 5.38212 | 39073 ft | 465 kts | 78° |
| 2026-05-07 14:08 | 52.72259 | 5.48585 | 39072 ft | 465 kts | 78° |
| 2026-05-07 14:08 | 52.73603 | 5.59056 | 39077 ft | 465 kts | 78° |
| 2026-05-07 14:09 | 52.74933 | 5.69504 | 39078 ft | 465 kts | 79° |
| 2026-05-07 14:09 | 52.76248 | 5.79907 | 39065 ft | 465 kts | 79° |
| 2026-05-07 14:10 | 52.77561 | 5.90374 | 39067 ft | 465 kts | 79° |
| 2026-05-07 14:10 | 52.78865 | 6.00842 | 39066 ft | 465 kts | 79° |
| 2026-05-07 14:11 | 52.80159 | 6.11321 | 39063 ft | 465 kts | 79° |
| 2026-05-07 14:11 | 52.81444 | 6.21797 | 39059 ft | 465 kts | 79° |
| 2026-05-07 14:12 | 52.82719 | 6.32281 | 39062 ft | 465 kts | 79° |
| 2026-05-07 14:12 | 52.83979 | 6.42720 | 39059 ft | 465 kts | 79° |
| 2026-05-07 14:13 | 52.85235 | 6.53209 | 39060 ft | 465 kts | 79° |
| 2026-05-07 14:13 | 52.86482 | 6.63709 | 39059 ft | 465 kts | 79° |
| 2026-05-07 14:14 | 52.87719 | 6.74206 | 39060 ft | 465 kts | 79° |
| 2026-05-07 14:14 | 52.88949 | 6.84727 | 39059 ft | 465 kts | 79° |
| 2026-05-07 14:15 | 52.90168 | 6.95243 | 39061 ft | 465 kts | 80° |
| 2026-05-07 14:15 | 52.91371 | 7.05699 | 39064 ft | 465 kts | 80° |
| 2026-05-07 14:16 | 52.92573 | 7.16238 | 39060 ft | 465 kts | 80° |
| 2026-05-07 14:16 | 52.93766 | 7.26787 | 39065 ft | 465 kts | 80° |
| 2026-05-07 14:17 | 52.94950 | 7.37340 | 39064 ft | 465 kts | 80° |
| 2026-05-07 14:17 | 52.96124 | 7.47901 | 39063 ft | 466 kts | 80° |
| 2026-05-07 14:18 | 52.97290 | 7.58474 | 39061 ft | 466 kts | 80° |
| 2026-05-07 14:18 | 52.98449 | 7.69057 | 39062 ft | 466 kts | 80° |
| 2026-05-07 14:19 | 52.99686 | 7.79628 | 39060 ft | 466 kts | 78° |
| 2026-05-07 14:19 | 53.01113 | 7.90134 | 39067 ft | 467 kts | 78° |
| 2026-05-07 14:20 | 53.02548 | 8.00639 | 39066 ft | 467 kts | 78° |
| 2026-05-07 14:20 | 53.03938 | 8.11095 | 39070 ft | 467 kts | 78° |
| 2026-05-07 14:21 | 53.05311 | 8.21624 | 39071 ft | 466 kts | 78° |
| 2026-05-07 14:21 | 53.06672 | 8.32180 | 39072 ft | 466 kts | 78° |
| 2026-05-07 14:22 | 53.08024 | 8.42730 | 39071 ft | 466 kts | 79° |
| 2026-05-07 14:22 | 53.09365 | 8.53275 | 39077 ft | 466 kts | 79° |
| 2026-05-07 14:23 | 53.10699 | 8.63834 | 39078 ft | 466 kts | 79° |
| 2026-05-07 14:23 | 53.12024 | 8.74403 | 39075 ft | 466 kts | 79° |
| 2026-05-07 14:24 | 53.13339 | 8.84977 | 39074 ft | 466 kts | 79° |
| 2026-05-07 14:24 | 53.14643 | 8.95549 | 39076 ft | 466 kts | 79° |
| 2026-05-07 14:25 | 53.15937 | 9.06115 | 39071 ft | 466 kts | 79° |
| 2026-05-07 14:25 | 53.17223 | 9.16697 | 39069 ft | 466 kts | 79° |
| 2026-05-07 14:26 | 53.18492 | 9.27229 | 39066 ft | 466 kts | 79° |
| 2026-05-07 14:26 | 53.19760 | 9.37839 | 39066 ft | 466 kts | 79° |
| 2026-05-07 14:27 | 53.21017 | 9.48434 | 39069 ft | 467 kts | 79° |
| 2026-05-07 14:27 | 53.22269 | 9.59069 | 39067 ft | 467 kts | 80° |
| 2026-05-07 14:28 | 53.23512 | 9.69722 | 39067 ft | 467 kts | 80° |
| 2026-05-07 14:28 | 53.24744 | 9.80365 | 39066 ft | 468 kts | 80° |
| 2026-05-07 14:29 | 53.25971 | 9.91063 | 39067 ft | 468 kts | 80° |
| 2026-05-07 14:29 | 53.27185 | 10.01725 | 39075 ft | 468 kts | 80° |
| 2026-05-07 14:30 | 53.28392 | 10.12419 | 39068 ft | 469 kts | 80° |
| 2026-05-07 14:30 | 53.29591 | 10.23134 | 39067 ft | 469 kts | 80° |
| 2026-05-07 14:31 | 53.30772 | 10.33782 | 39067 ft | 469 kts | 81° |
| 2026-05-07 14:31 | 53.31952 | 10.44505 | 39070 ft | 469 kts | 81° |
| 2026-05-07 14:32 | 53.33124 | 10.55254 | 39067 ft | 469 kts | 81° |
| 2026-05-07 14:32 | 53.34284 | 10.65987 | 39068 ft | 469 kts | 81° |
| 2026-05-07 14:33 | 53.35437 | 10.76745 | 39067 ft | 469 kts | 81° |
| 2026-05-07 14:33 | 53.36578 | 10.87500 | 39068 ft | 469 kts | 81° |
| 2026-05-07 14:34 | 53.37711 | 10.98269 | 39068 ft | 469 kts | 81° |
| 2026-05-07 14:34 | 53.38833 | 11.09022 | 39067 ft | 469 kts | 81° |
| 2026-05-07 14:35 | 53.39947 | 11.19810 | 39059 ft | 469 kts | 81° |
| 2026-05-07 14:35 | 53.41049 | 11.30577 | 39066 ft | 469 kts | 81° |
| 2026-05-07 14:36 | 53.42145 | 11.41366 | 39066 ft | 469 kts | 82° |
| 2026-05-07 14:36 | 53.43298 | 11.52087 | 39061 ft | 470 kts | 79° |
| 2026-05-07 14:37 | 53.44719 | 11.62849 | 39067 ft | 470 kts | 78° |
| 2026-05-07 14:37 | 53.46855 | 11.78836 | 39068 ft | 470 kts | 79° |
| 2026-05-07 14:38 | 53.49925 | 12.02915 | 39062 ft | 471 kts | 79° |
| 2026-05-07 14:38 | 53.55266 | 12.46095 | 39073 ft | 472 kts | 79° |
| 2026-05-07 14:39 | 53.60463 | 12.89432 | 39065 ft | 474 kts | 80° |
| 2026-05-07 14:39 | 53.65519 | 13.33023 | 39074 ft | 474 kts | 81° |
| 2026-05-07 14:40 | 53.70423 | 13.76808 | 39077 ft | 475 kts | 81° |
| 2026-05-07 14:40 | 53.75180 | 14.20779 | 39102 ft | 476 kts | 82° |
| 2026-05-07 14:41 | 53.76600 | 14.35186 | 39097 ft | 475 kts | 84° |
| 2026-05-07 14:41 | 53.79871 | 14.79486 | 39075 ft | 475 kts | 85° |
| 2026-05-07 14:42 | 53.81346 | 14.95394 | 39075 ft | 476 kts | 80° |
| 2026-05-07 14:42 | 53.86692 | 15.39332 | 39064 ft | 477 kts | 81° |
| 2026-05-07 14:43 | 53.91667 | 15.83463 | 39066 ft | 477 kts | 82° |
| 2026-05-07 14:43 | 53.94118 | 16.05646 | 38715 ft | 480 kts | 82° |
| 2026-05-07 14:43 | 53.96535 | 16.27916 | 36089 ft | 478 kts | 83° |
| 2026-05-07 14:44 | 53.98901 | 16.50162 | 33327 ft | 480 kts | 83° |
| 2026-05-07 14:44 | 54.01235 | 16.72547 | 30175 ft | 481 kts | 83° |
| 2026-05-07 14:44 | 54.03486 | 16.94417 | 27684 ft | 458 kts | 83° |
| 2026-05-07 14:44 | 54.05586 | 17.15282 | 25590 ft | 436 kts | 82° |
| 2026-05-07 14:45 | 54.06809 | 17.27640 | 24355 ft | 426 kts | 82° |
| 2026-05-07 14:45 | 54.08717 | 17.47187 | 22133 ft | 412 kts | 82° |
| 2026-05-07 14:45 | 54.10537 | 17.66119 | 20054 ft | 398 kts | 82° |
| 2026-05-07 14:45 | 54.12275 | 17.84514 | 18095 ft | 388 kts | 83° |
| 2026-05-07 14:46 | 54.13566 | 17.98406 | 16457 ft | 381 kts | 83° |
| 2026-05-07 14:46 | 54.13975 | 18.02844 | 15971 ft | 378 kts | 83° |
| 2026-05-07 14:46 | 54.14379 | 18.07245 | 15489 ft | 375 kts | 83° |
| 2026-05-07 14:46 | 54.14781 | 18.11650 | 14967 ft | 375 kts | 83° |
| 2026-05-07 14:47 | 54.15182 | 18.16061 | 14355 ft | 378 kts | 83° |
| 2026-05-07 14:47 | 54.15584 | 18.20494 | 13758 ft | 378 kts | 82° |
| 2026-05-07 14:47 | 54.15985 | 18.24933 | 13095 ft | 379 kts | 82° |
| 2026-05-07 14:47 | 54.16384 | 18.29372 | 12443 ft | 378 kts | 82° |
| 2026-05-07 14:48 | 54.16781 | 18.33811 | 11804 ft | 378 kts | 82° |
| 2026-05-07 14:48 | 54.17173 | 18.38201 | 11166 ft | 369 kts | 82° |
| 2026-05-07 14:48 | 54.17547 | 18.42403 | 10558 ft | 359 kts | 82° |
| 2026-05-07 14:48 | 54.17915 | 18.46561 | 9947 ft | 349 kts | 81° |
| 2026-05-07 14:49 | 54.18271 | 18.50611 | 9291 ft | 341 kts | 81° |
| 2026-05-07 14:49 | 54.18619 | 18.54571 | 8630 ft | 334 kts | 81° |
| 2026-05-07 14:49 | 54.18960 | 18.58480 | 7981 ft | 331 kts | 81° |
| 2026-05-07 14:49 | 54.19297 | 18.62332 | 7342 ft | 327 kts | 81° |
| 2026-05-07 14:50 | 54.19628 | 18.66141 | 6698 ft | 321 kts | 80° |
| 2026-05-07 14:50 | 54.19947 | 18.69841 | 6358 ft | 306 kts | 80° |
| 2026-05-07 14:50 | 54.20246 | 18.73330 | 6217 ft | 287 kts | 80° |
| 2026-05-07 14:50 | 54.20657 | 18.76534 | 6062 ft | 267 kts | 64° |
| 2026-05-07 14:51 | 54.21695 | 18.78984 | 5950 ft | 247 kts | 40° |
| 2026-05-07 14:51 | 54.23074 | 18.80529 | 5841 ft | 230 kts | 23° |
| 2026-05-07 14:51 | 54.24518 | 18.81597 | 5610 ft | 222 kts | 22° |
| 2026-05-07 14:51 | 54.25929 | 18.82618 | 5286 ft | 218 kts | 22° |
| 2026-05-07 14:52 | 54.27362 | 18.83145 | 5122 ft | 210 kts | 354° |
| 2026-05-07 14:52 | 54.28676 | 18.82145 | 4869 ft | 214 kts | 320° |
| 2026-05-07 14:52 | 54.29528 | 18.79894 | 4313 ft | 232 kts | 299° |
| 2026-05-07 14:52 | 54.30198 | 18.77353 | 3949 ft | 237 kts | 297° |
| 2026-05-07 14:53 | 54.30843 | 18.74743 | 3629 ft | 239 kts | 296° |
| 2026-05-07 14:53 | 54.31482 | 18.72118 | 3300 ft | 238 kts | 297° |
| 2026-05-07 14:53 | 54.32109 | 18.69549 | 3001 ft | 229 kts | 297° |
| 2026-05-07 14:53 | 54.32709 | 18.67099 | 2696 ft | 217 kts | 297° |
| 2026-05-07 14:54 | 54.33278 | 18.64778 | 2419 ft | 205 kts | 297° |
| 2026-05-07 14:54 | 54.33815 | 18.62596 | 2150 ft | 194 kts | 298° |
| 2026-05-07 14:54 | 54.34322 | 18.60533 | 1907 ft | 181 kts | 298° |
| 2026-05-07 14:54 | 54.34790 | 18.58627 | 1692 ft | 166 kts | 299° |
| 2026-05-07 14:55 | 54.35215 | 18.56899 | 1468 ft | 151 kts | 299° |
| 2026-05-07 14:55 | 54.35618 | 18.55271 | 1263 ft | 147 kts | 300° |
| 2026-05-07 14:55 | 54.36021 | 18.53647 | 1093 ft | 148 kts | 300° |
| 2026-05-07 14:55 | 54.36412 | 18.52020 | 871 ft | 147 kts | 297° |
| 2026-05-07 14:56 | 54.36794 | 18.50442 | 684 ft | 144 kts | 299° |
| 2026-05-07 14:56 | 54.37194 | 18.48874 | 523 ft | 143 kts | 299° |
| 2026-05-07 14:56 | 54.37575 | 18.47364 | 463 ft | 125 kts | 294° |
| 2026-05-07 14:56 | 54.37868 | 18.46177 | 455 ft | 91 kts | 293° |
| 2026-05-07 14:57 | 54.37993 | 18.45675 | 455 ft | 20 kts | 296° |
| 2026-05-07 14:57 | 54.38110 | 18.45635 | 451 ft | 20 kts | 28° |
| 2026-05-07 14:57 | 54.38132 | 18.45836 | 455 ft | 19 kts | 111° |
| 2026-05-07 14:57 | 54.38099 | 18.46009 | 459 ft | 12 kts | 86° |
| 2026-05-07 14:58 | 54.38153 | 18.46096 | 459 ft | 8 kts | 24° |
| 2026-05-07 14:58 | 54.38183 | 18.46147 | 459 ft | 5 kts | 89° |
| 2026-05-07 14:58 | 54.38168 | 18.46206 | 459 ft | 5 kts | 113° |
| 2026-05-07 14:58 | 54.38155 | 18.46265 | 459 ft | 5 kts | 101° |
| 2026-05-07 14:59 | 54.38155 | 18.46276 | 459 ft | 0 kts | 88° |
| 2026-05-07 14:59 | 54.38165 | 18.46297 | 459 ft | 6 kts | 37° |
| 2026-05-07 14:59 | 54.38193 | 18.46318 | 459 ft | 0 kts | 21° |